6MA8 weather

Acushnet River Seaplane Base
New Bedford, Massachusetts, United States

Public forecast

Using degrees Fahrenheit for public forecast. Weather courtesy of forecast.io.

METAR (pilot weather report)

Closest report is New Bedford Regional Airport, 2.5 nm (4.6 km) NW. Retrieved 2019/09/23 15:53 UTC (34 minutes ago):

KEWB 231553Z 22016G25KT 10SM CLR 24/19 A2986 RMK AO2 SLP109 T02440194

TAF (pilot weather forecast)

Closest forecast is Cape Cod Coast Guard Air Station, 17.8 nm (32.9 km) E. Retrieved 2019/09/23 12:24 UTC (4 hours ago):

TAF KFMH 231120Z 2312/2412 22014KT P6SM SCT250 FM240300 23016KT P6SM VCSH OVC060 FM240500 23012KT 6SM -RA BR OVC020 FM240700 23010KT 3SM -RA BR OVC020 FM241000 23008KT 6SM BR VCSH OVC025